sensor_id;sensor_type;location;lat;lon;timestamp;P1;durP1;ratioP1;P2;durP2;ratioP2
12112;SDS011;6120;52.250;8.478;2023-03-22T00:02:04;13.50;;;6.22;;
12112;SDS011;6120;52.250;8.478;2023-03-22T00:04:30;11.25;;;5.90;;
12112;SDS011;6120;52.250;8.478;2023-03-22T00:06:58;10.38;;;6.15;;
12112;SDS011;6120;52.250;8.478;2023-03-22T00:09:24;10.80;;;6.47;;
12112;SDS011;6120;52.250;8.478;2023-03-22T00:11:51;15.18;;;6.35;;
12112;SDS011;6120;52.250;8.478;2023-03-22T00:14:17;9.85;;;5.43;;
12112;SDS011;6120;52.250;8.478;2023-03-22T00:16:44;9.65;;;5.65;;
12112;SDS011;6120;52.250;8.478;2023-03-22T00:19:15;12.65;;;6.15;;
12112;SDS011;6120;52.250;8.478;2023-03-22T00:21:42;10.45;;;5.65;;
12112;SDS011;6120;52.250;8.478;2023-03-22T00:24:09;10.27;;;5.32;;
12112;SDS011;6120;52.250;8.478;2023-03-22T00:26:36;10.40;;;5.75;;
12112;SDS011;6120;52.250;8.478;2023-03-22T00:29:03;10.18;;;6.45;;
12112;SDS011;6120;52.250;8.478;2023-03-22T00:31:30;10.68;;;5.88;;
12112;SDS011;6120;52.250;8.478;2023-03-22T00:33:57;9.40;;;5.50;;
12112;SDS011;6120;52.250;8.478;2023-03-22T00:36:23;10.60;;;5.97;;
12112;SDS011;6120;52.250;8.478;2023-03-22T00:38:50;7.85;;;5.28;;
12112;SDS011;6120;52.250;8.478;2023-03-22T00:41:18;11.85;;;5.50;;
12112;SDS011;6120;52.250;8.478;2023-03-22T00:43:46;8.98;;;5.47;;
12112;SDS011;6120;52.250;8.478;2023-03-22T00:46:14;11.90;;;5.85;;
12112;SDS011;6120;52.250;8.478;2023-03-22T00:48:42;10.20;;;5.25;;
12112;SDS011;6120;52.250;8.478;2023-03-22T00:51:09;10.20;;;5.72;;
12112;SDS011;6120;52.250;8.478;2023-03-22T00:53:36;9.82;;;5.65;;
12112;SDS011;6120;52.250;8.478;2023-03-22T00:56:07;8.73;;;4.72;;
12112;SDS011;6120;52.250;8.478;2023-03-22T00:58:34;10.98;;;5.03;;
12112;SDS011;6120;52.250;8.478;2023-03-22T01:01:00;11.63;;;5.28;;
12112;SDS011;6120;52.250;8.478;2023-03-22T01:03:27;9.30;;;5.50;;
12112;SDS011;6120;52.250;8.478;2023-03-22T01:05:54;10.52;;;5.68;;
12112;SDS011;6120;52.250;8.478;2023-03-22T01:08:21;11.52;;;5.60;;
12112;SDS011;6120;52.250;8.478;2023-03-22T01:10:48;9.10;;;5.30;;
12112;SDS011;6120;52.250;8.478;2023-03-22T01:13:15;10.10;;;5.65;;
12112;SDS011;6120;52.250;8.478;2023-03-22T01:15:43;12.15;;;6.10;;
12112;SDS011;6120;52.250;8.478;2023-03-22T01:18:10;9.82;;;5.85;;
12112;SDS011;6120;52.250;8.478;2023-03-22T01:20:36;11.20;;;5.88;;
12112;SDS011;6120;52.250;8.478;2023-03-22T01:23:04;15.35;;;6.15;;
12112;SDS011;6120;52.250;8.478;2023-03-22T01:25:31;10.02;;;5.88;;
12112;SDS011;6120;52.250;8.478;2023-03-22T01:27:58;12.32;;;6.03;;
12112;SDS011;6120;52.250;8.478;2023-03-22T01:30:24;8.93;;;5.15;;
12112;SDS011;6120;52.250;8.478;2023-03-22T01:32:51;9.27;;;4.97;;
12112;SDS011;6120;52.250;8.478;2023-03-22T01:35:18;10.40;;;5.30;;
12112;SDS011;6120;52.250;8.478;2023-03-22T01:37:44;10.23;;;5.70;;
12112;SDS011;6120;52.250;8.478;2023-03-22T01:40:12;9.95;;;5.50;;
12112;SDS011;6120;52.250;8.478;2023-03-22T01:42:39;13.43;;;5.57;;
12112;SDS011;6120;52.250;8.478;2023-03-22T01:45:49;10.07;;;5.60;;
12112;SDS011;6120;52.250;8.478;2023-03-22T01:48:05;13.83;;;6.13;;
12112;SDS011;6120;52.250;8.478;2023-03-22T01:50:35;9.32;;;5.68;;
12112;SDS011;6120;52.250;8.478;2023-03-22T01:53:04;13.27;;;6.28;;
12112;SDS011;6120;52.250;8.478;2023-03-22T01:55:32;12.98;;;5.55;;
12112;SDS011;6120;52.250;8.478;2023-03-22T01:57:59;11.38;;;5.18;;
12112;SDS011;6120;52.250;8.478;2023-03-22T02:00:26;9.32;;;5.72;;
12112;SDS011;6120;52.250;8.478;2023-03-22T02:02:53;9.23;;;6.03;;
12112;SDS011;6120;52.250;8.478;2023-03-22T02:05:20;11.70;;;5.90;;
12112;SDS011;6120;52.250;8.478;2023-03-22T02:07:47;10.25;;;5.68;;
12112;SDS011;6120;52.250;8.478;2023-03-22T02:10:16;12.75;;;6.25;;
12112;SDS011;6120;52.250;8.478;2023-03-22T02:15:22;12.23;;;5.20;;
12112;SDS011;6120;52.250;8.478;2023-03-22T02:39:41;10.13;;;5.88;;
12112;SDS011;6120;52.250;8.478;2023-03-22T02:42:37;12.93;;;6.45;;
12112;SDS011;6120;52.250;8.478;2023-03-22T02:45:20;14.25;;;6.20;;
12112;SDS011;6120;52.250;8.478;2023-03-22T02:48:08;12.52;;;5.93;;
12112;SDS011;6120;52.250;8.478;2023-03-22T02:53:26;11.20;;;5.53;;
12112;SDS011;6120;52.250;8.478;2023-03-22T02:58:35;12.38;;;5.65;;
12112;SDS011;6120;52.250;8.478;2023-03-22T03:01:08;10.23;;;6.03;;
12112;SDS011;6120;52.250;8.478;2023-03-22T03:03:36;12.60;;;5.95;;
12112;SDS011;6120;52.250;8.478;2023-03-22T03:06:07;11.17;;;5.63;;
12112;SDS011;6120;52.250;8.478;2023-03-22T03:08:35;10.07;;;5.50;;
12112;SDS011;6120;52.250;8.478;2023-03-22T03:11:03;8.43;;;5.43;;
12112;SDS011;6120;52.250;8.478;2023-03-22T03:13:30;13.60;;;5.75;;
12112;SDS011;6120;52.250;8.478;2023-03-22T03:15:57;11.55;;;5.95;;
12112;SDS011;6120;52.250;8.478;2023-03-22T03:18:28;10.93;;;5.00;;
12112;SDS011;6120;52.250;8.478;2023-03-22T03:29:04;9.20;;;5.90;;
12112;SDS011;6120;52.250;8.478;2023-03-22T03:31:39;9.43;;;5.60;;
12112;SDS011;6120;52.250;8.478;2023-03-22T03:34:19;9.75;;;5.40;;
12112;SDS011;6120;52.250;8.478;2023-03-22T03:36:52;8.75;;;5.10;;
12112;SDS011;6120;52.250;8.478;2023-03-22T03:39:23;10.05;;;6.40;;
12112;SDS011;6120;52.250;8.478;2023-03-22T03:41:50;10.73;;;6.45;;
12112;SDS011;6120;52.250;8.478;2023-03-22T03:44:18;10.67;;;5.63;;
12112;SDS011;6120;52.250;8.478;2023-03-22T03:46:45;11.32;;;6.32;;
12112;SDS011;6120;52.250;8.478;2023-03-22T03:49:13;10.48;;;5.47;;
12112;SDS011;6120;52.250;8.478;2023-03-22T03:51:49;10.55;;;6.05;;
12112;SDS011;6120;52.250;8.478;2023-03-22T03:54:18;13.70;;;5.88;;
12112;SDS011;6120;52.250;8.478;2023-03-22T03:56:45;9.00;;;5.55;;
12112;SDS011;6120;52.250;8.478;2023-03-22T03:59:15;10.70;;;6.07;;
12112;SDS011;6120;52.250;8.478;2023-03-22T04:01:42;8.45;;;5.20;;
12112;SDS011;6120;52.250;8.478;2023-03-22T04:04:16;11.45;;;6.20;;
12112;SDS011;6120;52.250;8.478;2023-03-22T04:06:57;11.87;;;6.20;;
12112;SDS011;6120;52.250;8.478;2023-03-22T04:09:25;11.32;;;5.70;;
12112;SDS011;6120;52.250;8.478;2023-03-22T04:11:56;12.13;;;6.35;;
12112;SDS011;6120;52.250;8.478;2023-03-22T04:14:23;10.15;;;6.03;;
12112;SDS011;6120;52.250;8.478;2023-03-22T04:16:51;11.38;;;5.78;;
12112;SDS011;6120;52.250;8.478;2023-03-22T04:19:18;12.48;;;5.88;;
12112;SDS011;6120;52.250;8.478;2023-03-22T04:21:44;11.15;;;5.78;;
12112;SDS011;6120;52.250;8.478;2023-03-22T04:24:11;11.07;;;5.82;;
12112;SDS011;6120;52.250;8.478;2023-03-22T04:26:38;10.93;;;6.35;;
12112;SDS011;6120;52.250;8.478;2023-03-22T04:29:05;11.82;;;7.00;;
12112;SDS011;6120;52.250;8.478;2023-03-22T04:31:32;13.88;;;6.50;;
12112;SDS011;6120;52.250;8.478;2023-03-22T04:36:31;14.57;;;7.57;;
12112;SDS011;6120;52.250;8.478;2023-03-22T04:39:02;15.23;;;7.38;;
12112;SDS011;6120;52.250;8.478;2023-03-22T04:41:31;13.18;;;6.68;;
12112;SDS011;6120;52.250;8.478;2023-03-22T04:43:58;11.70;;;6.95;;
12112;SDS011;6120;52.250;8.478;2023-03-22T04:46:28;12.00;;;7.00;;
12112;SDS011;6120;52.250;8.478;2023-03-22T04:48:56;11.83;;;7.10;;
12112;SDS011;6120;52.250;8.478;2023-03-22T04:51:22;10.73;;;6.45;;
12112;SDS011;6120;52.250;8.478;2023-03-22T04:53:49;12.27;;;6.70;;
12112;SDS011;6120;52.250;8.478;2023-03-22T04:56:16;11.93;;;6.55;;
12112;SDS011;6120;52.250;8.478;2023-03-22T04:58:43;13.73;;;7.22;;
12112;SDS011;6120;52.250;8.478;2023-03-22T05:01:11;10.00;;;6.60;;
12112;SDS011;6120;52.250;8.478;2023-03-22T05:03:39;13.27;;;6.88;;
12112;SDS011;6120;52.250;8.478;2023-03-22T05:06:08;14.43;;;7.63;;
12112;SDS011;6120;52.250;8.478;2023-03-22T05:08:35;11.68;;;7.07;;
12112;SDS011;6120;52.250;8.478;2023-03-22T05:11:06;11.45;;;5.97;;
12112;SDS011;6120;52.250;8.478;2023-03-22T05:13:44;9.65;;;6.07;;
12112;SDS011;6120;52.250;8.478;2023-03-22T05:16:11;10.77;;;6.13;;
12112;SDS011;6120;52.250;8.478;2023-03-22T05:18:37;12.75;;;6.97;;
12112;SDS011;6120;52.250;8.478;2023-03-22T05:21:15;11.00;;;6.15;;
12112;SDS011;6120;52.250;8.478;2023-03-22T05:23:43;9.50;;;6.65;;
12112;SDS011;6120;52.250;8.478;2023-03-22T05:26:11;10.20;;;6.40;;
12112;SDS011;6120;52.250;8.478;2023-03-22T05:28:41;10.65;;;6.75;;
12112;SDS011;6120;52.250;8.478;2023-03-22T05:31:08;12.57;;;6.47;;
12112;SDS011;6120;52.250;8.478;2023-03-22T05:36:03;12.05;;;6.05;;
12112;SDS011;6120;52.250;8.478;2023-03-22T05:38:30;11.13;;;6.03;;
12112;SDS011;6120;52.250;8.478;2023-03-22T05:40:57;16.77;;;7.13;;
12112;SDS011;6120;52.250;8.478;2023-03-22T05:43:23;11.00;;;6.40;;
12112;SDS011;6120;52.250;8.478;2023-03-22T05:45:50;10.98;;;6.70;;
12112;SDS011;6120;52.250;8.478;2023-03-22T05:48:17;11.88;;;6.57;;
12112;SDS011;6120;52.250;8.478;2023-03-22T05:50:43;12.65;;;6.13;;
12112;SDS011;6120;52.250;8.478;2023-03-22T05:53:10;12.45;;;6.82;;
12112;SDS011;6120;52.250;8.478;2023-03-22T05:55:37;12.27;;;6.72;;
12112;SDS011;6120;52.250;8.478;2023-03-22T05:58:04;11.25;;;6.57;;
12112;SDS011;6120;52.250;8.478;2023-03-22T06:00:30;14.07;;;6.88;;
12112;SDS011;6120;52.250;8.478;2023-03-22T06:02:57;16.10;;;6.85;;
12112;SDS011;6120;52.250;8.478;2023-03-22T06:05:29;12.60;;;6.95;;
12112;SDS011;6120;52.250;8.478;2023-03-22T06:07:57;12.07;;;6.53;;
12112;SDS011;6120;52.250;8.478;2023-03-22T06:10:24;11.10;;;6.72;;
12112;SDS011;6120;52.250;8.478;2023-03-22T06:12:52;13.00;;;5.95;;
12112;SDS011;6120;52.250;8.478;2023-03-22T06:15:19;11.77;;;6.55;;
12112;SDS011;6120;52.250;8.478;2023-03-22T06:17:46;13.32;;;6.22;;
12112;SDS011;6120;52.250;8.478;2023-03-22T06:20:12;10.27;;;6.32;;
12112;SDS011;6120;52.250;8.478;2023-03-22T06:22:39;11.40;;;6.53;;
12112;SDS011;6120;52.250;8.478;2023-03-22T06:25:06;11.18;;;6.07;;
12112;SDS011;6120;52.250;8.478;2023-03-22T06:27:34;10.27;;;5.65;;
12112;SDS011;6120;52.250;8.478;2023-03-22T06:30:01;12.82;;;5.70;;
12112;SDS011;6120;52.250;8.478;2023-03-22T06:32:28;12.30;;;6.20;;
12112;SDS011;6120;52.250;8.478;2023-03-22T06:34:55;9.38;;;5.40;;
12112;SDS011;6120;52.250;8.478;2023-03-22T06:37:24;12.27;;;6.35;;
12112;SDS011;6120;52.250;8.478;2023-03-22T06:39:51;10.82;;;5.20;;
12112;SDS011;6120;52.250;8.478;2023-03-22T06:42:18;17.17;;;6.43;;
12112;SDS011;6120;52.250;8.478;2023-03-22T06:44:44;11.98;;;6.10;;
12112;SDS011;6120;52.250;8.478;2023-03-22T06:47:11;9.93;;;5.70;;
12112;SDS011;6120;52.250;8.478;2023-03-22T06:49:38;10.90;;;5.68;;
12112;SDS011;6120;52.250;8.478;2023-03-22T06:52:05;13.57;;;5.55;;
12112;SDS011;6120;52.250;8.478;2023-03-22T06:54:32;10.70;;;5.47;;
12112;SDS011;6120;52.250;8.478;2023-03-22T06:56:58;12.32;;;4.47;;
12112;SDS011;6120;52.250;8.478;2023-03-22T06:59:25;13.68;;;4.38;;
12112;SDS011;6120;52.250;8.478;2023-03-22T07:01:52;10.38;;;4.55;;
12112;SDS011;6120;52.250;8.478;2023-03-22T07:04:18;9.45;;;4.38;;
12112;SDS011;6120;52.250;8.478;2023-03-22T07:06:45;8.88;;;3.63;;
12112;SDS011;6120;52.250;8.478;2023-03-22T07:09:12;9.38;;;4.20;;
12112;SDS011;6120;52.250;8.478;2023-03-22T07:11:39;10.77;;;4.75;;
12112;SDS011;6120;52.250;8.478;2023-03-22T07:14:05;8.75;;;4.20;;
12112;SDS011;6120;52.250;8.478;2023-03-22T07:16:32;10.02;;;3.88;;
12112;SDS011;6120;52.250;8.478;2023-03-22T07:18:59;8.82;;;4.07;;
12112;SDS011;6120;52.250;8.478;2023-03-22T07:21:27;7.38;;;4.07;;
12112;SDS011;6120;52.250;8.478;2023-03-22T07:23:53;9.75;;;3.75;;
12112;SDS011;6120;52.250;8.478;2023-03-22T07:26:20;12.15;;;4.60;;
12112;SDS011;6120;52.250;8.478;2023-03-22T07:28:47;11.25;;;4.82;;
12112;SDS011;6120;52.250;8.478;2023-03-22T07:31:15;10.98;;;4.40;;
12112;SDS011;6120;52.250;8.478;2023-03-22T07:33:42;11.30;;;4.80;;
12112;SDS011;6120;52.250;8.478;2023-03-22T07:36:09;7.70;;;3.92;;
12112;SDS011;6120;52.250;8.478;2023-03-22T07:38:36;7.75;;;3.63;;
12112;SDS011;6120;52.250;8.478;2023-03-22T07:41:03;10.27;;;3.65;;
12112;SDS011;6120;52.250;8.478;2023-03-22T07:43:29;10.00;;;3.65;;
12112;SDS011;6120;52.250;8.478;2023-03-22T07:45:59;11.82;;;3.83;;
12112;SDS011;6120;52.250;8.478;2023-03-22T07:48:25;6.00;;;3.55;;
12112;SDS011;6120;52.250;8.478;2023-03-22T07:50:54;11.05;;;3.80;;
12112;SDS011;6120;52.250;8.478;2023-03-22T07:53:21;13.87;;;3.80;;
12112;SDS011;6120;52.250;8.478;2023-03-22T07:55:48;10.35;;;3.70;;
12112;SDS011;6120;52.250;8.478;2023-03-22T07:58:14;7.70;;;3.75;;
12112;SDS011;6120;52.250;8.478;2023-03-22T08:00:41;5.70;;;3.42;;
12112;SDS011;6120;52.250;8.478;2023-03-22T08:03:09;7.72;;;3.60;;
12112;SDS011;6120;52.250;8.478;2023-03-22T08:05:40;11.20;;;3.70;;
12112;SDS011;6120;52.250;8.478;2023-03-22T08:08:08;7.60;;;3.72;;
12112;SDS011;6120;52.250;8.478;2023-03-22T08:10:36;9.43;;;4.20;;
12112;SDS011;6120;52.250;8.478;2023-03-22T08:13:03;10.07;;;3.85;;
12112;SDS011;6120;52.250;8.478;2023-03-22T08:15:30;11.48;;;4.50;;
12112;SDS011;6120;52.250;8.478;2023-03-22T08:17:57;10.45;;;4.43;;
12112;SDS011;6120;52.250;8.478;2023-03-22T08:20:24;7.43;;;3.83;;
12112;SDS011;6120;52.250;8.478;2023-03-22T08:22:53;8.82;;;4.75;;
12112;SDS011;6120;52.250;8.478;2023-03-22T08:25:20;9.77;;;4.35;;
12112;SDS011;6120;52.250;8.478;2023-03-22T08:27:47;8.13;;;3.95;;
12112;SDS011;6120;52.250;8.478;2023-03-22T08:30:14;7.45;;;3.78;;
12112;SDS011;6120;52.250;8.478;2023-03-22T08:32:40;8.93;;;4.25;;
12112;SDS011;6120;52.250;8.478;2023-03-22T08:35:07;9.32;;;4.10;;
12112;SDS011;6120;52.250;8.478;2023-03-22T08:37:34;7.57;;;3.85;;
12112;SDS011;6120;52.250;8.478;2023-03-22T08:40:01;10.65;;;4.13;;
12112;SDS011;6120;52.250;8.478;2023-03-22T08:42:31;9.88;;;4.05;;
12112;SDS011;6120;52.250;8.478;2023-03-22T08:44:58;8.00;;;3.70;;
12112;SDS011;6120;52.250;8.478;2023-03-22T08:47:25;16.20;;;4.10;;
12112;SDS011;6120;52.250;8.478;2023-03-22T08:49:51;9.00;;;3.70;;
12112;SDS011;6120;52.250;8.478;2023-03-22T08:52:18;11.00;;;4.13;;
12112;SDS011;6120;52.250;8.478;2023-03-22T08:54:45;10.27;;;3.92;;
12112;SDS011;6120;52.250;8.478;2023-03-22T08:57:12;7.35;;;3.88;;
12112;SDS011;6120;52.250;8.478;2023-03-22T08:59:40;8.98;;;4.20;;
12112;SDS011;6120;52.250;8.478;2023-03-22T09:02:07;7.50;;;3.45;;
12112;SDS011;6120;52.250;8.478;2023-03-22T09:04:34;6.18;;;3.70;;
12112;SDS011;6120;52.250;8.478;2023-03-22T09:07:01;9.68;;;4.70;;
12112;SDS011;6120;52.250;8.478;2023-03-22T09:09:28;6.88;;;3.72;;
12112;SDS011;6120;52.250;8.478;2023-03-22T09:11:54;7.03;;;3.88;;
12112;SDS011;6120;52.250;8.478;2023-03-22T09:14:21;7.75;;;3.60;;
12112;SDS011;6120;52.250;8.478;2023-03-22T09:16:48;8.27;;;3.53;;
12112;SDS011;6120;52.250;8.478;2023-03-22T09:19:14;8.18;;;3.70;;
12112;SDS011;6120;52.250;8.478;2023-03-22T09:21:42;7.32;;;3.40;;
12112;SDS011;6120;52.250;8.478;2023-03-22T09:24:08;8.63;;;3.30;;
12112;SDS011;6120;52.250;8.478;2023-03-22T09:26:35;8.10;;;3.38;;
12112;SDS011;6120;52.250;8.478;2023-03-22T09:29:02;6.72;;;3.47;;
12112;SDS011;6120;52.250;8.478;2023-03-22T09:31:29;5.93;;;3.50;;
12112;SDS011;6120;52.250;8.478;2023-03-22T09:33:56;6.37;;;3.30;;
12112;SDS011;6120;52.250;8.478;2023-03-22T09:36:25;7.38;;;3.28;;
12112;SDS011;6120;52.250;8.478;2023-03-22T09:38:52;8.73;;;3.08;;
12112;SDS011;6120;52.250;8.478;2023-03-22T09:44:07;6.45;;;3.10;;
12112;SDS011;6120;52.250;8.478;2023-03-22T09:46:43;6.47;;;2.90;;
12112;SDS011;6120;52.250;8.478;2023-03-22T09:49:16;5.82;;;3.08;;
12112;SDS011;6120;52.250;8.478;2023-03-22T09:51:45;8.20;;;3.00;;
12112;SDS011;6120;52.250;8.478;2023-03-22T09:54:17;8.48;;;3.33;;
12112;SDS011;6120;52.250;8.478;2023-03-22T09:57:34;8.10;;;2.92;;
12112;SDS011;6120;52.250;8.478;2023-03-22T09:59:52;5.57;;;2.63;;
12112;SDS011;6120;52.250;8.478;2023-03-22T10:05:30;6.82;;;2.40;;
12112;SDS011;6120;52.250;8.478;2023-03-22T10:10:50;8.15;;;2.85;;
12112;SDS011;6120;52.250;8.478;2023-03-22T10:16:19;6.78;;;2.08;;
12112;SDS011;6120;52.250;8.478;2023-03-22T10:21:51;5.43;;;1.77;;
12112;SDS011;6120;52.250;8.478;2023-03-22T10:24:21;6.32;;;1.90;;
12112;SDS011;6120;52.250;8.478;2023-03-22T10:26:49;6.05;;;1.70;;
12112;SDS011;6120;52.250;8.478;2023-03-22T10:31:49;5.30;;;2.20;;
12112;SDS011;6120;52.250;8.478;2023-03-22T10:34:19;5.05;;;1.90;;
12112;SDS011;6120;52.250;8.478;2023-03-22T10:36:49;6.10;;;1.73;;
12112;SDS011;6120;52.250;8.478;2023-03-22T10:39:33;6.85;;;2.00;;
12112;SDS011;6120;52.250;8.478;2023-03-22T10:42:06;3.70;;;1.83;;
12112;SDS011;6120;52.250;8.478;2023-03-22T10:44:44;5.20;;;1.85;;
12112;SDS011;6120;52.250;8.478;2023-03-22T10:47:23;4.15;;;2.00;;
12112;SDS011;6120;52.250;8.478;2023-03-22T10:49:55;6.72;;;1.73;;
12112;SDS011;6120;52.250;8.478;2023-03-22T10:55:08;6.68;;;2.00;;
12112;SDS011;6120;52.250;8.478;2023-03-22T10:57:40;8.45;;;2.13;;
12112;SDS011;6120;52.250;8.478;2023-03-22T11:00:08;5.85;;;2.40;;
12112;SDS011;6120;52.250;8.478;2023-03-22T11:02:46;5.10;;;2.22;;
12112;SDS011;6120;52.250;8.478;2023-03-22T11:05:22;6.30;;;1.90;;
12112;SDS011;6120;52.250;8.478;2023-03-22T11:07:50;6.50;;;1.70;;
12112;SDS011;6120;52.250;8.478;2023-03-22T11:10:19;6.50;;;2.25;;
12112;SDS011;6120;52.250;8.478;2023-03-22T11:15:33;7.35;;;1.90;;
12112;SDS011;6120;52.250;8.478;2023-03-22T11:18:06;6.78;;;2.20;;
12112;SDS011;6120;52.250;8.478;2023-03-22T11:20:35;6.32;;;2.05;;
12112;SDS011;6120;52.250;8.478;2023-03-22T11:23:10;7.68;;;2.00;;
12112;SDS011;6120;52.250;8.478;2023-03-22T11:25:43;8.45;;;2.22;;
12112;SDS011;6120;52.250;8.478;2023-03-22T11:28:15;5.32;;;1.83;;
12112;SDS011;6120;52.250;8.478;2023-03-22T11:31:04;5.28;;;1.80;;
12112;SDS011;6120;52.250;8.478;2023-03-22T11:33:32;5.18;;;1.58;;
12112;SDS011;6120;52.250;8.478;2023-03-22T11:36:03;6.63;;;1.90;;
12112;SDS011;6120;52.250;8.478;2023-03-22T11:38:40;5.15;;;1.50;;
12112;SDS011;6120;52.250;8.478;2023-03-22T11:41:22;7.40;;;1.67;;
12112;SDS011;6120;52.250;8.478;2023-03-22T11:43:55;5.93;;;1.60;;
12112;SDS011;6120;52.250;8.478;2023-03-22T11:46:23;5.60;;;1.77;;
12112;SDS011;6120;52.250;8.478;2023-03-22T11:48:51;4.22;;;1.45;;
12112;SDS011;6120;52.250;8.478;2023-03-22T11:51:27;8.13;;;1.90;;
12112;SDS011;6120;52.250;8.478;2023-03-22T11:53:58;4.05;;;1.52;;
12112;SDS011;6120;52.250;8.478;2023-03-22T11:56:47;6.57;;;1.77;;
12112;SDS011;6120;52.250;8.478;2023-03-22T11:59:21;4.60;;;1.55;;
12112;SDS011;6120;52.250;8.478;2023-03-22T12:01:57;7.15;;;2.13;;
12112;SDS011;6120;52.250;8.478;2023-03-22T12:04:30;6.43;;;2.20;;
12112;SDS011;6120;52.250;8.478;2023-03-22T12:07:00;6.78;;;1.83;;
12112;SDS011;6120;52.250;8.478;2023-03-22T12:12:27;2.75;;;1.52;;
12112;SDS011;6120;52.250;8.478;2023-03-22T12:25:29;3.80;;;2.10;;
12112;SDS011;6120;52.250;8.478;2023-03-22T12:28:05;6.50;;;1.50;;
12112;SDS011;6120;52.250;8.478;2023-03-22T12:33:48;4.38;;;1.70;;
12112;SDS011;6120;52.250;8.478;2023-03-22T12:36:18;6.30;;;1.90;;
12112;SDS011;6120;52.250;8.478;2023-03-22T12:38:55;5.00;;;1.88;;
12112;SDS011;6120;52.250;8.478;2023-03-22T12:41:25;4.13;;;2.10;;
12112;SDS011;6120;52.250;8.478;2023-03-22T12:44:02;7.60;;;2.15;;
12112;SDS011;6120;52.250;8.478;2023-03-22T12:49:25;7.60;;;1.80;;
12112;SDS011;6120;52.250;8.478;2023-03-22T12:52:22;3.30;;;1.60;;
12112;SDS011;6120;52.250;8.478;2023-03-22T12:55:33;2.88;;;1.40;;
12112;SDS011;6120;52.250;8.478;2023-03-22T12:58:06;8.05;;;2.10;;
12112;SDS011;6120;52.250;8.478;2023-03-22T13:03:17;6.70;;;1.40;;
12112;SDS011;6120;52.250;8.478;2023-03-22T13:05:49;6.53;;;1.30;;
12112;SDS011;6120;52.250;8.478;2023-03-22T13:08:25;4.30;;;1.67;;
12112;SDS011;6120;52.250;8.478;2023-03-22T13:11:30;3.63;;;1.60;;
12112;SDS011;6120;52.250;8.478;2023-03-22T13:13:57;3.92;;;0.95;;
12112;SDS011;6120;52.250;8.478;2023-03-22T13:16:40;4.25;;;1.15;;
12112;SDS011;6120;52.250;8.478;2023-03-22T13:19:25;8.68;;;1.42;;
12112;SDS011;6120;52.250;8.478;2023-03-22T13:22:14;7.75;;;1.40;;
12112;SDS011;6120;52.250;8.478;2023-03-22T13:32:44;6.13;;;1.35;;
12112;SDS011;6120;52.250;8.478;2023-03-22T13:35:22;5.40;;;1.30;;
12112;SDS011;6120;52.250;8.478;2023-03-22T13:37:54;2.72;;;1.23;;
12112;SDS011;6120;52.250;8.478;2023-03-22T13:43:07;3.93;;;1.40;;
12112;SDS011;6120;52.250;8.478;2023-03-22T13:59:23;7.75;;;1.52;;
12112;SDS011;6120;52.250;8.478;2023-03-22T14:01:59;9.27;;;1.70;;
12112;SDS011;6120;52.250;8.478;2023-03-22T14:04:51;8.18;;;1.85;;
12112;SDS011;6120;52.250;8.478;2023-03-22T14:07:22;6.97;;;1.98;;
12112;SDS011;6120;52.250;8.478;2023-03-22T14:10:11;5.70;;;1.60;;
12112;SDS011;6120;52.250;8.478;2023-03-22T14:15:54;6.93;;;1.65;;
12112;SDS011;6120;52.250;8.478;2023-03-22T14:18:23;4.85;;;1.65;;
12112;SDS011;6120;52.250;8.478;2023-03-22T14:21:40;7.68;;;1.75;;
12112;SDS011;6120;52.250;8.478;2023-03-22T14:24:04;4.32;;;1.38;;
12112;SDS011;6120;52.250;8.478;2023-03-22T14:26:33;4.53;;;1.70;;
12112;SDS011;6120;52.250;8.478;2023-03-22T14:29:08;7.50;;;1.92;;
12112;SDS011;6120;52.250;8.478;2023-03-22T14:31:37;7.20;;;1.60;;
12112;SDS011;6120;52.250;8.478;2023-03-22T14:34:03;11.20;;;2.13;;
12112;SDS011;6120;52.250;8.478;2023-03-22T14:39:05;5.63;;;1.98;;
12112;SDS011;6120;52.250;8.478;2023-03-22T14:41:36;6.03;;;1.73;;
12112;SDS011;6120;52.250;8.478;2023-03-22T14:44:02;4.50;;;1.60;;
12112;SDS011;6120;52.250;8.478;2023-03-22T14:46:31;5.93;;;1.70;;
12112;SDS011;6120;52.250;8.478;2023-03-22T14:49:02;5.32;;;1.80;;
12112;SDS011;6120;52.250;8.478;2023-03-22T14:51:36;4.25;;;1.42;;
12112;SDS011;6120;52.250;8.478;2023-03-22T14:54:05;5.25;;;1.92;;
12112;SDS011;6120;52.250;8.478;2023-03-22T14:56:39;5.90;;;1.60;;
12112;SDS011;6120;52.250;8.478;2023-03-22T14:59:07;5.25;;;1.58;;
12112;SDS011;6120;52.250;8.478;2023-03-22T15:01:37;5.43;;;1.90;;
12112;SDS011;6120;52.250;8.478;2023-03-22T15:04:06;6.85;;;2.10;;
12112;SDS011;6120;52.250;8.478;2023-03-22T15:06:34;7.05;;;1.98;;
12112;SDS011;6120;52.250;8.478;2023-03-22T15:09:10;6.32;;;1.80;;
12112;SDS011;6120;52.250;8.478;2023-03-22T15:11:37;4.50;;;1.52;;
12112;SDS011;6120;52.250;8.478;2023-03-22T15:14:04;4.05;;;1.48;;
12112;SDS011;6120;52.250;8.478;2023-03-22T15:16:31;4.10;;;1.38;;
12112;SDS011;6120;52.250;8.478;2023-03-22T15:18:57;4.20;;;1.67;;
12112;SDS011;6120;52.250;8.478;2023-03-22T15:21:24;2.78;;;1.50;;
12112;SDS011;6120;52.250;8.478;2023-03-22T15:23:51;4.25;;;1.58;;
12112;SDS011;6120;52.250;8.478;2023-03-22T15:28:55;3.13;;;1.35;;
12112;SDS011;6120;52.250;8.478;2023-03-22T15:31:23;5.65;;;1.88;;
12112;SDS011;6120;52.250;8.478;2023-03-22T15:33:53;4.15;;;1.45;;
12112;SDS011;6120;52.250;8.478;2023-03-22T15:36:19;7.68;;;1.77;;
12112;SDS011;6120;52.250;8.478;2023-03-22T15:38:46;6.07;;;1.60;;
12112;SDS011;6120;52.250;8.478;2023-03-22T15:41:19;5.90;;;1.30;;
12112;SDS011;6120;52.250;8.478;2023-03-22T15:43:57;4.15;;;1.50;;
12112;SDS011;6120;52.250;8.478;2023-03-22T15:46:24;4.63;;;1.58;;
12112;SDS011;6120;52.250;8.478;2023-03-22T15:48:54;4.90;;;1.42;;
12112;SDS011;6120;52.250;8.478;2023-03-22T15:51:30;3.45;;;1.23;;
12112;SDS011;6120;52.250;8.478;2023-03-22T15:54:01;4.88;;;1.30;;
12112;SDS011;6120;52.250;8.478;2023-03-22T15:56:36;6.32;;;1.38;;
12112;SDS011;6120;52.250;8.478;2023-03-22T15:59:03;4.38;;;1.33;;
12112;SDS011;6120;52.250;8.478;2023-03-22T16:01:40;5.93;;;1.63;;
12112;SDS011;6120;52.250;8.478;2023-03-22T16:04:18;3.90;;;1.77;;
12112;SDS011;6120;52.250;8.478;2023-03-22T16:06:45;4.50;;;1.58;;
12112;SDS011;6120;52.250;8.478;2023-03-22T16:09:11;4.28;;;1.70;;
12112;SDS011;6120;52.250;8.478;2023-03-22T16:11:36;5.53;;;1.48;;
12112;SDS011;6120;52.250;8.478;2023-03-22T16:14:02;3.65;;;1.20;;
12112;SDS011;6120;52.250;8.478;2023-03-22T16:16:27;4.15;;;1.30;;
12112;SDS011;6120;52.250;8.478;2023-03-22T16:18:53;2.80;;;1.23;;
12112;SDS011;6120;52.250;8.478;2023-03-22T16:21:24;5.45;;;1.52;;
12112;SDS011;6120;52.250;8.478;2023-03-22T16:23:51;2.58;;;1.10;;
12112;SDS011;6120;52.250;8.478;2023-03-22T16:26:17;4.13;;;1.63;;
12112;SDS011;6120;52.250;8.478;2023-03-22T16:28:43;3.47;;;1.50;;
12112;SDS011;6120;52.250;8.478;2023-03-22T16:31:13;4.53;;;1.40;;
12112;SDS011;6120;52.250;8.478;2023-03-22T16:33:39;6.05;;;1.42;;
12112;SDS011;6120;52.250;8.478;2023-03-22T16:36:06;5.85;;;1.45;;
12112;SDS011;6120;52.250;8.478;2023-03-22T16:38:33;7.03;;;1.73;;
12112;SDS011;6120;52.250;8.478;2023-03-22T16:40:59;3.78;;;1.40;;
12112;SDS011;6120;52.250;8.478;2023-03-22T16:43:25;2.72;;;1.50;;
12112;SDS011;6120;52.250;8.478;2023-03-22T16:45:50;6.05;;;1.58;;
12112;SDS011;6120;52.250;8.478;2023-03-22T16:48:16;4.78;;;1.40;;
12112;SDS011;6120;52.250;8.478;2023-03-22T16:50:42;7.45;;;1.95;;
12112;SDS011;6120;52.250;8.478;2023-03-22T16:53:12;3.53;;;1.15;;
12112;SDS011;6120;52.250;8.478;2023-03-22T16:55:39;3.42;;;1.50;;
12112;SDS011;6120;52.250;8.478;2023-03-22T16:58:05;3.50;;;1.40;;
12112;SDS011;6120;52.250;8.478;2023-03-22T17:00:30;2.58;;;1.50;;
12112;SDS011;6120;52.250;8.478;2023-03-22T17:03:00;3.85;;;1.50;;
12112;SDS011;6120;52.250;8.478;2023-03-22T17:05:29;5.50;;;1.55;;
12112;SDS011;6120;52.250;8.478;2023-03-22T17:07:56;6.13;;;2.07;;
12112;SDS011;6120;52.250;8.478;2023-03-22T17:10:29;3.38;;;1.60;;
12112;SDS011;6120;52.250;8.478;2023-03-22T17:12:56;3.08;;;1.60;;